Time,TemperatureF,DewpointF,PressureIn,WindDirection,WindDirectionDegrees,WindSpeedMPH,WindSpeedGustMPH,Humidity,HourlyPrecipIn,Conditions,Clouds,dailyrainin,SoftwareType,DateUTC
2013-01-26 00:00:00,19.4,15.6,30.07,SSE,161,0.0,0.0,85,0.00,,,0.00,VWS V14.01,2013-01-26 05:00:00,
2013-01-26 00:01:00,19.4,15.6,30.07,SSE,161,0.0,0.0,85,0.00,,,0.00,VWS V14.01,2013-01-26 05:01:00,
2013-01-26 00:06:00,19.4,15.6,30.06,SSE,160,0.0,0.0,85,0.00,,,0.00,VWS V14.01,2013-01-26 05:06:00,
2013-01-26 00:11:00,19.4,15.6,30.07,SSE,161,0.0,0.0,85,0.00,,,0.00,VWS V14.01,2013-01-26 05:11:00,
2013-01-26 00:17:00,19.5,15.7,30.06,SSE,160,0.0,0.0,85,0.00,,,0.00,VWS V14.01,2013-01-26 05:17:00,
2013-01-26 00:22:00,19.6,16.1,30.06,SSE,161,0.0,0.0,86,0.00,,,0.00,VWS V14.01,2013-01-26 05:22:00,
2013-01-26 00:27:00,19.7,16.2,30.07,SSE,161,0.0,0.0,86,0.00,,,0.00,VWS V14.01,2013-01-26 05:27:00,
2013-01-26 00:30:00,19.4,15.6,30.07,SSE,161,0.0,0.0,85,0.00,,,0.00,VWS V14.01,2013-01-26 05:30:00,
2013-01-26 00:32:00,19.7,15.9,30.06,SSE,160,0.0,0.0,85,0.00,,,0.00,VWS V14.01,2013-01-26 05:32:00,
2013-01-26 00:37:00,19.7,15.9,30.07,SSE,161,0.0,0.0,85,0.00,,,0.00,VWS V14.01,2013-01-26 05:37:00,
2013-01-26 00:42:00,19.7,15.9,30.07,SSE,161,0.0,0.0,85,0.00,,,0.00,VWS V14.01,2013-01-26 05:42:00,
2013-01-26 00:47:00,19.7,15.9,30.07,SSE,161,0.0,0.0,85,0.00,,,0.00,VWS V14.01,2013-01-26 05:47:00,
2013-01-26 00:52:00,19.6,15.8,30.07,SSE,161,0.0,0.0,85,0.00,,,0.00,VWS V14.01,2013-01-26 05:52:00,
2013-01-26 00:57:00,19.6,15.8,30.07,SSE,161,0.0,0.0,85,0.00,,,0.00,VWS V14.01,2013-01-26 05:57:00,
2013-01-26 01:00:00,19.0,15.2,30.08,SSE,160,0.0,0.0,85,0.00,,,0.00,VWS V14.01,2013-01-26 06:00:00,
2013-01-26 01:02:00,19.6,15.8,30.07,SSE,160,0.0,0.0,85,0.00,,,0.00,VWS V14.01,2013-01-26 06:02:00,
2013-01-26 01:07:00,19.5,15.7,30.07,SSE,161,0.0,0.0,85,0.00,,,0.00,VWS V14.01,2013-01-26 06:07:00,
2013-01-26 01:12:00,19.5,15.7,30.07,SSE,161,0.0,0.0,85,0.00,,,0.00,VWS V14.01,2013-01-26 06:12:00,
2013-01-26 01:18:00,19.5,15.7,30.07,SSE,161,0.0,0.0,85,0.00,,,0.00,VWS V14.01,2013-01-26 06:18:00,
2013-01-26 01:23:00,19.4,15.6,30.07,SSE,160,0.0,0.0,85,0.00,,,0.00,VWS V14.01,2013-01-26 06:23:00,
2013-01-26 01:28:00,19.4,15.6,30.07,SSE,160,0.0,0.0,85,0.00,,,0.00,VWS V14.01,2013-01-26 06:28:00,
2013-01-26 01:30:00,18.9,15.4,30.10,SSE,161,0.0,0.0,86,0.00,,,0.00,VWS V14.01,2013-01-26 06:30:00,
2013-01-26 01:33:00,19.4,15.6,30.07,SSE,161,0.0,0.0,85,0.00,,,0.00,VWS V14.01,2013-01-26 06:33:00,
2013-01-26 01:38:00,19.3,15.5,30.07,SSE,161,0.0,0.0,85,0.00,,,0.00,VWS V14.01,2013-01-26 06:38:00,
2013-01-26 01:43:00,19.3,15.8,30.07,SSE,161,0.0,0.0,86,0.00,,,0.00,VWS V14.01,2013-01-26 06:43:00,
2013-01-26 01:48:00,19.3,15.8,30.07,SSE,161,0.0,0.0,86,0.00,,,0.00,VWS V14.01,2013-01-26 06:48:00,
2013-01-26 01:53:00,19.3,15.8,30.07,SSE,160,0.0,0.0,86,0.00,,,0.00,VWS V14.01,2013-01-26 06:53:00,
2013-01-26 01:58:00,19.1,15.6,30.08,SSE,161,0.0,0.0,86,0.00,,,0.00,VWS V14.01,2013-01-26 06:58:00,
2013-01-26 02:00:00,19.3,15.8,30.10,SSW,209,0.0,1.0,86,0.00,,,0.00,VWS V14.01,2013-01-26 07:00:00,
2013-01-26 02:03:00,19.1,15.3,30.08,SSE,161,0.0,0.0,85,0.00,,,0.00,VWS V14.01,2013-01-26 07:03:00,
2013-01-26 02:08:00,19.0,15.2,30.09,SSE,161,0.0,0.0,85,0.00,,,0.00,VWS V14.01,2013-01-26 07:08:00,
2013-01-26 02:14:00,18.9,15.1,30.09,SSE,161,0.0,0.0,85,0.00,,,0.00,VWS V14.01,2013-01-26 07:14:00,
2013-01-26 02:19:00,18.9,15.1,30.09,SSE,161,0.0,0.0,85,0.00,,,0.00,VWS V14.01,2013-01-26 07:19:00,
2013-01-26 02:24:00,18.8,15.1,30.09,SSE,161,0.0,0.0,85,0.00,,,0.00,VWS V14.01,2013-01-26 07:24:00,
2013-01-26 02:29:00,18.8,15.3,30.10,SSE,161,0.0,0.0,86,0.00,,,0.00,VWS V14.01,2013-01-26 07:29:00,
2013-01-26 02:30:00,19.8,16.3,30.11,SSW,209,0.0,1.0,86,0.00,,,0.00,VWS V14.01,2013-01-26 07:30:00,
2013-01-26 02:34:00,18.9,15.4,30.10,SSE,161,0.0,0.0,86,0.00,,,0.00,VWS V14.01,2013-01-26 07:34:00,
2013-01-26 02:39:00,18.9,15.4,30.10,SSE,161,0.0,0.0,86,0.00,,,0.00,VWS V14.01,2013-01-26 07:39:00,
2013-01-26 02:44:00,19.0,15.5,30.10,SSE,161,0.0,0.0,86,0.00,,,0.00,VWS V14.01,2013-01-26 07:44:00,
2013-01-26 02:49:00,19.1,15.6,30.10,SSE,161,0.0,0.0,86,0.00,,,0.00,VWS V14.01,2013-01-26 07:49:00,
2013-01-26 02:54:00,19.1,15.6,30.10,SSE,161,0.0,0.0,86,0.00,,,0.00,VWS V14.01,2013-01-26 07:54:00,
2013-01-26 03:00:00,19.2,15.7,30.10,SSE,161,0.0,0.0,86,0.00,,,0.00,VWS V14.01,2013-01-26 08:00:00,
2013-01-26 03:05:00,19.3,15.8,30.10,SSW,209,0.0,1.0,86,0.00,,,0.00,VWS V14.01,2013-01-26 08:05:00,
2013-01-26 03:10:00,19.5,16.0,30.10,SSW,209,0.0,0.0,86,0.00,,,0.00,VWS V14.01,2013-01-26 08:10:00,
2013-01-26 03:15:00,19.6,16.1,30.10,SSW,209,0.0,0.0,86,0.00,,,0.00,VWS V14.01,2013-01-26 08:15:00,
2013-01-26 03:20:00,19.7,16.2,30.10,SSW,209,0.0,1.0,86,0.00,,,0.00,VWS V14.01,2013-01-26 08:20:00,
2013-01-26 03:25:00,19.7,16.2,30.10,SSW,209,0.0,1.0,86,0.00,,,0.00,VWS V14.01,2013-01-26 08:25:00,
2013-01-26 03:30:00,19.7,16.2,30.10,SSW,209,0.0,1.0,86,0.00,,,0.00,VWS V14.01,2013-01-26 08:30:00,
2013-01-26 03:35:00,19.8,16.3,30.11,SSW,209,0.0,1.0,86,0.00,,,0.00,VWS V14.01,2013-01-26 08:35:00,
2013-01-26 03:40:00,19.9,16.4,30.11,SSW,209,0.0,1.0,86,0.00,,,0.00,VWS V14.01,2013-01-26 08:40:00,
2013-01-26 03:45:00,20.1,16.6,30.11,SSW,209,0.0,1.0,86,0.00,,,0.00,VWS V14.01,2013-01-26 08:45:00,
2013-01-26 03:51:00,20.2,16.7,30.12,SW,233,3.0,3.0,86,0.00,,,0.00,VWS V14.01,2013-01-26 08:51:00,
2013-01-26 03:56:00,20.3,16.8,30.12,SW,233,0.0,3.0,86,0.00,,,0.00,VWS V14.01,2013-01-26 08:56:00,
2013-01-26 04:00:00,20.8,17.0,30.13,WSW,247,0.0,3.0,85,0.00,,,0.00,VWS V14.01,2013-01-26 09:00:00,
2013-01-26 04:01:00,20.4,16.9,30.12,WSW,241,0.0,3.0,86,0.00,,,0.00,VWS V14.01,2013-01-26 09:01:00,
2013-01-26 04:06:00,20.5,17.0,30.12,WSW,241,0.0,1.0,86,0.00,,,0.00,VWS V14.01,2013-01-26 09:06:00,
2013-01-26 04:11:00,20.6,17.1,30.12,WSW,241,0.0,1.0,86,0.00,,,0.00,VWS V14.01,2013-01-26 09:11:00,
2013-01-26 04:16:00,20.6,17.1,30.12,WSW,241,0.0,1.0,86,0.00,,,0.00,VWS V14.01,2013-01-26 09:16:00,
2013-01-26 04:21:00,20.7,17.2,30.12,WSW,241,0.0,2.0,86,0.00,,,0.00,VWS V14.01,2013-01-26 09:21:00,
2013-01-26 04:26:00,20.7,17.2,30.12,WSW,241,0.0,2.0,86,0.00,,,0.00,VWS V14.01,2013-01-26 09:26:00,
2013-01-26 04:30:00,20.8,17.0,30.14,WSW,247,0.0,2.0,85,0.00,,,0.00,VWS V14.01,2013-01-26 09:30:00,
2013-01-26 04:31:00,20.8,17.3,30.12,WSW,244,0.0,2.0,86,0.00,,,0.00,VWS V14.01,2013-01-26 09:31:00,
2013-01-26 04:37:00,20.8,17.3,30.13,WSW,244,0.0,1.0,86,0.00,,,0.00,VWS V14.01,2013-01-26 09:37:00,
2013-01-26 04:42:00,20.8,17.3,30.13,WSW,244,0.0,2.0,86,0.00,,,0.00,VWS V14.01,2013-01-26 09:42:00,
2013-01-26 04:47:00,20.8,17.3,30.13,WSW,244,0.0,2.0,86,0.00,,,0.00,VWS V14.01,2013-01-26 09:47:00,
2013-01-26 04:52:00,20.8,17.0,30.13,WSW,245,0.0,2.0,85,0.00,,,0.00,VWS V14.01,2013-01-26 09:52:00,
2013-01-26 04:57:00,20.8,17.0,30.13,WSW,245,0.0,2.0,85,0.00,,,0.00,VWS V14.01,2013-01-26 09:57:00,
2013-01-26 05:00:00,20.7,16.6,30.16,WSW,247,0.0,2.0,84,0.00,,,0.00,VWS V14.01,2013-01-26 10:00:00,
2013-01-26 05:02:00,20.8,17.0,30.14,WSW,246,2.0,3.0,85,0.00,,,0.00,VWS V14.01,2013-01-26 10:02:00,
2013-01-26 05:07:00,20.8,17.0,30.13,WSW,247,0.0,0.0,85,0.00,,,0.00,VWS V14.01,2013-01-26 10:07:00,
2013-01-26 05:12:00,20.8,17.0,30.14,WSW,247,0.0,1.0,85,0.00,,,0.00,VWS V14.01,2013-01-26 10:12:00,
2013-01-26 05:17:00,20.8,17.0,30.14,WSW,247,0.0,1.0,85,0.00,,,0.00,VWS V14.01,2013-01-26 10:17:00,
2013-01-26 05:22:00,20.8,17.0,30.14,WSW,247,1.0,1.0,85,0.00,,,0.00,VWS V14.01,2013-01-26 10:22:00,
2013-01-26 05:27:00,20.8,17.0,30.14,WSW,247,0.0,2.0,85,0.00,,,0.00,VWS V14.01,2013-01-26 10:27:00,
2013-01-26 05:30:00,20.6,16.5,30.17,WSW,248,0.0,2.0,84,0.00,,,0.00,VWS V14.01,2013-01-26 10:30:00,
2013-01-26 05:32:00,20.8,17.0,30.14,WSW,247,0.0,2.0,85,0.00,,,0.00,VWS V14.01,2013-01-26 10:32:00,
2013-01-26 05:37:00,20.8,18.9,30.15,WSW,247,0.0,0.0,92,0.00,,,0.00,VWS V14.01,2013-01-26 10:37:00,
2013-01-26 05:43:00,20.8,17.0,30.15,WSW,247,0.0,2.0,85,0.00,,,0.00,VWS V14.01,2013-01-26 10:43:00,
2013-01-26 05:48:00,20.8,16.7,30.15,WSW,247,0.0,2.0,84,0.00,,,0.00,VWS V14.01,2013-01-26 10:48:00,
2013-01-26 05:53:00,20.8,16.7,30.15,WSW,247,0.0,2.0,84,0.00,,,0.00,VWS V14.01,2013-01-26 10:53:00,
2013-01-26 05:58:00,20.7,16.6,30.15,WSW,247,0.0,2.0,84,0.00,,,0.00,VWS V14.01,2013-01-26 10:58:00,
2013-01-26 06:00:00,20.6,16.3,30.19,WSW,248,0.0,1.0,83,0.00,,,0.00,VWS V14.01,2013-01-26 11:00:00,
2013-01-26 06:03:00,20.7,16.6,30.16,WSW,247,0.0,2.0,84,0.00,,,0.00,VWS V14.01,2013-01-26 11:03:00,
2013-01-26 06:08:00,20.7,16.6,30.16,WSW,247,0.0,2.0,84,0.00,,,0.00,VWS V14.01,2013-01-26 11:08:00,
2013-01-26 06:13:00,20.7,16.6,30.16,WSW,248,0.0,2.0,84,0.00,,,0.00,VWS V14.01,2013-01-26 11:13:00,
2013-01-26 06:18:00,20.7,16.6,30.16,WSW,248,0.0,2.0,84,0.00,,,0.00,VWS V14.01,2013-01-26 11:18:00,
2013-01-26 06:23:00,20.7,16.6,30.17,WSW,248,0.0,2.0,84,0.00,,,0.00,VWS V14.01,2013-01-26 11:23:00,
2013-01-26 06:28:00,20.7,16.6,30.17,WSW,248,0.0,2.0,84,0.00,,,0.00,VWS V14.01,2013-01-26 11:28:00,
2013-01-26 06:30:00,20.5,16.2,30.21,WSW,242,0.0,4.0,83,0.00,,,0.00,VWS V14.01,2013-01-26 11:30:00,
2013-01-26 06:33:00,20.7,16.6,30.17,WSW,248,0.0,2.0,84,0.00,,,0.00,VWS V14.01,2013-01-26 11:33:00,
2013-01-26 06:38:00,20.6,16.5,30.17,WSW,248,0.0,0.0,84,0.00,,,0.00,VWS V14.01,2013-01-26 11:38:00,
2013-01-26 06:43:00,20.6,16.5,30.18,WSW,248,0.0,0.0,84,0.00,,,0.00,VWS V14.01,2013-01-26 11:43:00,
2013-01-26 06:48:00,20.6,16.5,30.18,WSW,248,0.0,0.0,84,0.00,,,0.00,VWS V14.01,2013-01-26 11:48:00,
2013-01-26 06:54:00,20.6,16.5,30.19,WSW,248,0.0,0.0,84,0.00,,,0.00,VWS V14.01,2013-01-26 11:54:00,
2013-01-26 06:59:00,20.6,16.3,30.19,WSW,248,0.0,1.0,83,0.00,,,0.00,VWS V14.01,2013-01-26 11:59:00,
2013-01-26 07:00:00,20.4,16.1,30.21,WSW,242,0.0,1.0,83,0.00,,,0.00,VWS V14.01,2013-01-26 12:00:00,
2013-01-26 07:04:00,20.6,16.3,30.19,WSW,248,0.0,1.0,83,0.00,,,0.00,VWS V14.01,2013-01-26 12:04:00,
2013-01-26 07:09:00,20.6,16.3,30.19,WSW,248,0.0,1.0,83,0.00,,,0.00,VWS V14.01,2013-01-26 12:09:00,
2013-01-26 07:14:00,20.5,16.2,30.20,WSW,248,0.0,1.0,83,0.00,,,0.00,VWS V14.01,2013-01-26 12:14:00,
2013-01-26 07:19:00,20.5,16.2,30.20,WSW,242,0.0,4.0,83,0.00,,,0.00,VWS V14.01,2013-01-26 12:19:00,
2013-01-26 07:24:00,20.6,16.3,30.20,WSW,242,0.0,4.0,83,0.00,,,0.00,VWS V14.01,2013-01-26 12:24:00,
2013-01-26 07:29:00,20.6,16.3,30.20,WSW,242,0.0,4.0,83,0.00,,,0.00,VWS V14.01,2013-01-26 12:29:00,
2013-01-26 07:30:00,20.6,16.3,30.23,WSW,242,0.0,2.0,83,0.00,,,0.00,VWS V14.01,2013-01-26 12:30:00,
2013-01-26 07:34:00,20.5,16.2,30.20,WSW,241,0.0,4.0,83,0.00,,,0.00,VWS V14.01,2013-01-26 12:34:00,
2013-01-26 07:39:00,20.5,16.2,30.21,WSW,241,0.0,0.0,83,0.00,,,0.00,VWS V14.01,2013-01-26 12:39:00,
2013-01-26 07:44:00,20.5,16.2,30.21,WSW,242,1.0,1.0,83,0.00,,,0.00,VWS V14.01,2013-01-26 12:44:00,
2013-01-26 07:49:00,20.5,16.2,30.21,WSW,241,0.0,1.0,83,0.00,,,0.00,VWS V14.01,2013-01-26 12:49:00,
2013-01-26 07:54:00,20.5,16.2,30.20,WSW,242,0.0,1.0,83,0.00,,,0.00,VWS V14.01,2013-01-26 12:54:00,
2013-01-26 07:59:00,20.4,16.1,30.21,WSW,241,0.0,1.0,83,0.00,,,0.00,VWS V14.01,2013-01-26 12:59:00,
2013-01-26 08:00:00,21.1,16.5,30.24,WSW,253,0.0,3.0,82,0.00,,,0.00,VWS V14.01,2013-01-26 13:00:00,
2013-01-26 08:05:00,20.4,16.1,30.21,WSW,242,0.0,1.0,83,0.00,,,0.00,VWS V14.01,2013-01-26 13:05:00,
2013-01-26 08:10:00,20.4,16.1,30.21,WSW,241,0.0,0.0,83,0.00,,,0.00,VWS V14.01,2013-01-26 13:10:00,
2013-01-26 08:15:00,20.4,16.1,30.22,WSW,241,0.0,1.0,83,0.00,,,0.00,VWS V14.01,2013-01-26 13:15:00,
2013-01-26 08:20:00,20.5,16.2,30.22,WSW,242,0.0,1.0,83,0.00,,,0.00,VWS V14.01,2013-01-26 13:20:00,
2013-01-26 08:25:00,20.5,16.2,30.22,WSW,242,0.0,2.0,83,0.00,,,0.00,VWS V14.01,2013-01-26 13:25:00,
2013-01-26 08:30:00,20.6,16.3,30.22,WSW,242,0.0,2.0,83,0.00,,,0.00,VWS V14.01,2013-01-26 13:30:00,
2013-01-26 08:35:00,20.6,16.3,30.23,WSW,242,0.0,2.0,83,0.00,,,0.00,VWS V14.01,2013-01-26 13:35:00,
2013-01-26 08:40:00,20.7,16.4,30.23,WSW,242,0.0,2.0,83,0.00,,,0.00,VWS V14.01,2013-01-26 13:40:00,
2013-01-26 08:45:00,20.7,16.4,30.22,WSW,242,0.0,2.0,83,0.00,,,0.00,VWS V14.01,2013-01-26 13:45:00,
2013-01-26 08:50:00,20.8,16.5,30.23,WSW,242,0.0,2.0,83,0.00,,,0.00,VWS V14.01,2013-01-26 13:50:00,
2013-01-26 08:55:00,20.9,16.6,30.23,WSW,242,0.0,2.0,83,0.00,,,0.00,VWS V14.01,2013-01-26 13:55:00,
2013-01-26 09:00:00,21.0,16.4,30.23,WSW,242,0.0,2.0,82,0.00,,,0.00,VWS V14.01,2013-01-26 14:00:00,
2013-01-26 09:05:00,21.1,16.5,30.24,WSW,253,0.0,3.0,82,0.00,,,0.00,VWS V14.01,2013-01-26 14:05:00,
2013-01-26 09:11:00,21.2,16.6,30.23,WSW,254,2.0,2.0,82,0.00,,,0.00,VWS V14.01,2013-01-26 14:11:00,
2013-01-26 09:16:00,21.2,16.6,30.24,WSW,258,0.0,3.0,82,0.00,,,0.00,VWS V14.01,2013-01-26 14:16:00,
2013-01-26 09:21:00,21.3,16.7,30.24,WSW,258,0.0,3.0,82,0.00,,,0.00,VWS V14.01,2013-01-26 14:21:00,
2013-01-26 09:26:00,21.5,16.9,30.24,WSW,257,0.0,3.0,82,0.00,,,0.00,VWS V14.01,2013-01-26 14:26:00,
2013-01-26 09:30:00,22.9,16.8,30.28,SW,236,1.0,6.0,77,0.00,,,0.00,VWS V14.01,2013-01-26 14:30:00,
2013-01-26 09:31:00,21.6,17.0,30.24,WSW,256,0.0,3.0,82,0.00,,,0.00,VWS V14.01,2013-01-26 14:31:00,
2013-01-26 09:36:00,21.7,16.8,30.24,WSW,256,1.0,2.0,81,0.00,,,0.00,VWS V14.01,2013-01-26 14:36:00,
2013-01-26 09:41:00,21.8,16.9,30.25,WSW,255,0.0,2.0,81,0.00,,,0.00,VWS V14.01,2013-01-26 14:41:00,
2013-01-26 09:46:00,22.0,17.1,30.25,WSW,255,0.0,2.0,81,0.00,,,0.00,VWS V14.01,2013-01-26 14:46:00,
2013-01-26 09:51:00,22.1,17.2,30.25,WSW,257,0.0,3.0,81,0.00,,,0.00,VWS V14.01,2013-01-26 14:51:00,
2013-01-26 09:56:00,22.2,17.3,30.26,WSW,256,0.0,3.0,81,0.00,,,0.00,VWS V14.01,2013-01-26 14:56:00,
2013-01-26 10:00:00,24.5,17.1,30.29,WSW,258,0.0,6.0,73,0.00,,,0.00,VWS V14.01,2013-01-26 15:00:00,
2013-01-26 10:01:00,22.3,17.1,30.26,West,260,0.0,3.0,80,0.00,,,0.00,VWS V14.01,2013-01-26 15:01:00,
2013-01-26 10:06:00,22.3,17.1,30.26,WSW,248,2.0,2.0,80,0.00,,,0.00,VWS V14.01,2013-01-26 15:06:00,
2013-01-26 10:11:00,22.4,16.9,30.26,West,259,1.0,6.0,79,0.00,,,0.00,VWS V14.01,2013-01-26 15:11:00,
2013-01-26 10:17:00,22.4,16.9,30.27,WSW,253,1.0,6.0,79,0.00,,,0.00,VWS V14.01,2013-01-26 15:17:00,
2013-01-26 10:22:00,22.5,16.7,30.27,West,265,0.0,6.0,78,0.00,,,0.00,VWS V14.01,2013-01-26 15:22:00,
2013-01-26 10:27:00,22.7,16.9,30.27,WSW,258,1.0,6.0,78,0.00,,,0.00,VWS V14.01,2013-01-26 15:27:00,
2013-01-26 10:30:00,24.9,14.8,30.30,WSW,240,0.0,6.0,65,0.00,,,0.00,VWS V14.01,2013-01-26 15:30:00,
2013-01-26 10:32:00,22.8,16.7,30.27,SW,236,0.0,6.0,77,0.00,,,0.00,VWS V14.01,2013-01-26 15:32:00,
2013-01-26 10:37:00,22.9,16.8,30.28,SW,233,0.0,2.0,77,0.00,,,0.00,VWS V14.01,2013-01-26 15:37:00,
2013-01-26 10:42:00,23.1,17.0,30.28,West,261,0.0,3.0,77,0.00,,,0.00,VWS V14.01,2013-01-26 15:42:00,
2013-01-26 10:47:00,23.3,16.9,30.28,West,261,0.0,3.0,76,0.00,,,0.00,VWS V14.01,2013-01-26 15:47:00,
2013-01-26 10:52:00,23.6,16.9,30.28,NNE,12,0.0,3.0,75,0.00,,,0.00,VWS V14.01,2013-01-26 15:52:00,
2013-01-26 10:57:00,23.9,16.8,30.29,WSW,251,0.0,5.0,74,0.00,,,0.00,VWS V14.01,2013-01-26 15:57:00,
2013-01-26 11:00:00,24.8,14.4,30.31,WSW,252,2.0,5.0,64,0.00,,,0.00,VWS V14.01,2013-01-26 16:00:00,
2013-01-26 11:02:00,24.3,17.2,30.29,WSW,250,0.0,6.0,74,0.00,,,0.00,VWS V14.01,2013-01-26 16:02:00,
2013-01-26 11:07:00,24.5,16.8,30.29,WSW,255,0.0,4.0,72,0.00,,,0.00,VWS V14.01,2013-01-26 16:07:00,
2013-01-26 11:12:00,24.5,16.8,30.29,North,355,0.0,4.0,72,0.00,,,0.00,VWS V14.01,2013-01-26 16:12:00,
2013-01-26 11:17:00,24.2,15.8,30.30,NW,307,0.0,4.0,70,0.00,,,0.00,VWS V14.01,2013-01-26 16:17:00,
2013-01-26 11:23:00,24.6,15.9,30.30,South,175,1.0,6.0,69,0.00,,,0.00,VWS V14.01,2013-01-26 16:23:00,
2013-01-26 11:28:00,25.2,15.4,30.30,WSW,256,3.0,6.0,66,0.00,,,0.00,VWS V14.01,2013-01-26 16:28:00,
2013-01-26 11:30:00,25.6,15.1,30.30,WSW,254,0.0,7.0,64,0.00,,,0.00,VWS V14.01,2013-01-26 16:30:00,
2013-01-26 11:33:00,25.1,15.0,30.30,SW,229,0.0,6.0,65,0.00,,,0.00,VWS V14.01,2013-01-26 16:33:00,
2013-01-26 11:38:00,24.8,15.1,30.30,WSW,242,0.0,2.0,66,0.00,,,0.00,VWS V14.01,2013-01-26 16:38:00,
2013-01-26 11:43:00,24.8,14.7,30.31,SSW,192,0.0,5.0,65,0.00,,,0.00,VWS V14.01,2013-01-26 16:43:00,
2013-01-26 11:48:00,25.1,14.6,30.30,NNW,338,0.0,5.0,64,0.00,,,0.00,VWS V14.01,2013-01-26 16:48:00,
2013-01-26 11:53:00,25.2,15.1,30.31,West,281,0.0,5.0,65,0.00,,,0.00,VWS V14.01,2013-01-26 16:53:00,
2013-01-26 11:58:00,25.2,14.8,30.30,West,267,2.0,5.0,64,0.00,,,0.00,VWS V14.01,2013-01-26 16:58:00,
2013-01-26 12:00:00,26.6,14.6,30.31,WSW,252,4.0,7.0,60,0.00,,,0.00,VWS V14.01,2013-01-26 17:00:00,
2013-01-26 12:03:00,25.0,14.6,30.31,WSW,248,0.0,5.0,64,0.00,,,0.00,VWS V14.01,2013-01-26 17:03:00,
2013-01-26 12:08:00,24.6,14.2,30.31,WNW,286,1.0,5.0,64,0.00,,,0.00,VWS V14.01,2013-01-26 17:08:00,
2013-01-26 12:13:00,24.5,14.4,30.31,West,263,0.0,5.0,65,0.00,,,0.00,VWS V14.01,2013-01-26 17:13:00,
2013-01-26 12:18:00,24.4,14.3,30.31,WSW,257,0.0,5.0,65,0.00,,,0.00,VWS V14.01,2013-01-26 17:18:00,
2013-01-26 12:24:00,24.5,14.8,30.31,WSW,257,0.0,5.0,66,0.00,,,0.00,VWS V14.01,2013-01-26 17:24:00,
2013-01-26 12:29:00,25.1,15.0,30.31,WSW,242,2.0,7.0,65,0.00,,,0.00,VWS V14.01,2013-01-26 17:29:00,
2013-01-26 12:30:00,26.1,15.2,30.31,West,261,0.0,5.0,63,0.00,,,0.00,VWS V14.01,2013-01-26 17:30:00,
2013-01-26 12:34:00,25.4,14.9,30.30,WSW,254,0.0,7.0,64,0.00,,,0.00,VWS V14.01,2013-01-26 17:34:00,
2013-01-26 12:39:00,26.3,15.8,30.30,WSW,240,0.0,3.0,64,0.00,,,0.00,VWS V14.01,2013-01-26 17:39:00,
2013-01-26 12:44:00,26.5,15.6,30.30,NNW,338,0.0,5.0,63,0.00,,,0.00,VWS V14.01,2013-01-26 17:44:00,
2013-01-26 12:49:00,26.5,15.3,30.30,West,261,0.0,5.0,62,0.00,,,0.00,VWS V14.01,2013-01-26 17:49:00,
2013-01-26 12:54:00,26.3,14.7,30.30,West,273,0.0,5.0,61,0.00,,,0.00,VWS V14.01,2013-01-26 17:54:00,
2013-01-26 12:59:00,26.3,14.7,30.31,West,272,1.0,5.0,61,0.00,,,0.00,VWS V14.01,2013-01-26 17:59:00,
2013-01-26 13:00:00,26.6,17.5,30.32,WNW,291,0.0,3.0,68,0.00,,,0.00,VWS V14.01,2013-01-26 18:00:00,
2013-01-26 13:04:00,26.6,15.0,30.31,West,260,1.0,5.0,61,0.00,,,0.00,VWS V14.01,2013-01-26 18:04:00,
2013-01-26 13:09:00,26.4,14.4,30.31,WSW,257,4.0,5.0,60,0.00,,,0.00,VWS V14.01,2013-01-26 18:09:00,
2013-01-26 13:14:00,26.1,14.5,30.31,West,264,0.0,5.0,61,0.00,,,0.00,VWS V14.01,2013-01-26 18:14:00,
2013-01-26 13:19:00,26.0,14.4,30.31,NNW,344,0.0,5.0,61,0.00,,,0.00,VWS V14.01,2013-01-26 18:19:00,
2013-01-26 13:24:00,26.0,14.8,30.31,WSW,244,2.0,5.0,62,0.00,,,0.00,VWS V14.01,2013-01-26 18:24:00,
2013-01-26 13:29:00,26.0,14.8,30.31,WSW,257,3.0,5.0,62,0.00,,,0.00,VWS V14.01,2013-01-26 18:29:00,
2013-01-26 13:30:00,26.2,15.7,30.32,West,263,0.0,4.0,64,0.00,,,0.00,VWS V14.01,2013-01-26 18:30:00,
2013-01-26 13:34:00,26.0,15.1,30.31,West,261,0.0,5.0,63,0.00,,,0.00,VWS V14.01,2013-01-26 18:34:00,
2013-01-26 13:39:00,26.2,15.3,30.31,West,261,0.0,1.0,63,0.00,,,0.00,VWS V14.01,2013-01-26 18:39:00,
2013-01-26 13:45:00,26.2,15.3,30.31,West,261,0.0,1.0,63,0.00,,,0.00,VWS V14.01,2013-01-26 18:45:00,
2013-01-26 13:50:00,26.2,15.3,30.31,West,267,0.0,3.0,63,0.00,,,0.00,VWS V14.01,2013-01-26 18:50:00,
2013-01-26 13:55:00,26.2,15.3,30.32,West,267,0.0,3.0,63,0.00,,,0.00,VWS V14.01,2013-01-26 18:55:00,
2013-01-26 14:00:00,26.4,15.2,30.32,West,267,1.0,3.0,62,0.00,,,0.00,VWS V14.01,2013-01-26 19:00:00,
2013-01-26 14:05:00,26.6,15.7,30.32,WNW,295,0.0,3.0,63,0.00,,,0.00,VWS V14.01,2013-01-26 19:05:00,
2013-01-26 14:10:00,26.8,15.5,30.32,West,271,0.0,4.0,62,0.00,,,0.00,VWS V14.01,2013-01-26 19:10:00,
2013-01-26 14:15:00,26.8,15.5,30.32,NE,41,3.0,4.0,62,0.00,,,0.00,VWS V14.01,2013-01-26 19:15:00,
2013-01-26 14:20:00,26.7,15.4,30.31,West,260,1.0,4.0,62,0.00,,,0.00,VWS V14.01,2013-01-26 19:20:00,
2013-01-26 14:25:00,26.6,17.1,30.32,West,264,0.0,4.0,67,0.00,,,0.00,VWS V14.01,2013-01-26 19:25:00,
2013-01-26 14:30:00,26.5,15.6,30.32,West,261,2.0,4.0,63,0.00,,,0.00,VWS V14.01,2013-01-26 19:30:00,
2013-01-26 14:35:00,26.3,15.8,30.32,West,263,0.0,4.0,64,0.00,,,0.00,VWS V14.01,2013-01-26 19:35:00,
2013-01-26 14:40:00,26.2,15.7,30.32,WSW,248,3.0,5.0,64,0.00,,,0.00,VWS V14.01,2013-01-26 19:40:00,
2013-01-26 14:45:00,26.0,15.1,30.33,West,263,0.0,5.0,63,0.00,,,0.00,VWS V14.01,2013-01-26 19:45:00,
2013-01-26 14:51:00,25.9,15.1,30.33,WSW,251,0.0,5.0,63,0.00,,,0.00,VWS V14.01,2013-01-26 19:51:00,
2013-01-26 14:55:00,26.0,15.5,30.33,West,263,1.0,5.0,64,0.00,,,0.00,VWS V14.01,2013-01-26 19:55:00,
2013-01-26 15:00:00,26.0,15.5,30.32,West,263,0.0,5.0,64,0.00,,,0.00,VWS V14.01,2013-01-26 20:00:00,
2013-01-26 15:05:00,26.0,15.9,30.33,NNW,331,0.0,5.0,65,0.00,,,0.00,VWS V14.01,2013-01-26 20:05:00,
2013-01-26 15:10:00,25.9,15.8,30.33,WSW,244,0.0,5.0,65,0.00,,,0.00,VWS V14.01,2013-01-26 20:10:00,
2013-01-26 15:16:00,25.8,15.7,30.33,WSW,250,0.0,5.0,65,0.00,,,0.00,VWS V14.01,2013-01-26 20:16:00,
2013-01-26 15:21:00,25.8,15.7,30.33,WSW,249,0.0,5.0,65,0.00,,,0.00,VWS V14.01,2013-01-26 20:21:00,
2013-01-26 15:26:00,25.8,15.7,30.33,WSW,257,1.0,5.0,65,0.00,,,0.00,VWS V14.01,2013-01-26 20:26:00,
2013-01-26 15:30:00,25.4,16.7,30.36,WSW,257,1.0,3.0,69,0.00,,,0.00,VWS V14.01,2013-01-26 20:30:00,
2013-01-26 15:31:00,25.7,15.9,30.33,West,260,0.0,5.0,66,0.00,,,0.00,VWS V14.01,2013-01-26 20:31:00,
2013-01-26 15:36:00,25.6,16.2,30.34,WSW,257,2.0,2.0,67,0.00,,,0.00,VWS V14.01,2013-01-26 20:36:00,
2013-01-26 15:41:00,25.6,15.8,30.34,WSW,256,0.0,3.0,66,0.00,,,0.00,VWS V14.01,2013-01-26 20:41:00,
2013-01-26 15:46:00,25.7,16.3,30.34,West,279,0.0,4.0,67,0.00,,,0.00,VWS V14.01,2013-01-26 20:46:00,
2013-01-26 15:51:00,25.7,16.3,30.34,West,279,0.0,4.0,67,0.00,,,0.00,VWS V14.01,2013-01-26 20:51:00,
2013-01-26 15:56:00,25.7,15.9,30.35,WSW,244,1.0,5.0,66,0.00,,,0.00,VWS V14.01,2013-01-26 20:56:00,
2013-01-26 16:00:00,25.2,16.8,30.37,WSW,258,0.0,2.0,70,0.00,,,0.00,VWS V14.01,2013-01-26 21:00:00,
2013-01-26 16:01:00,25.6,16.2,30.35,West,265,0.0,5.0,67,0.00,,,0.00,VWS V14.01,2013-01-26 21:01:00,
2013-01-26 16:06:00,25.6,16.2,30.35,West,265,0.0,0.0,67,0.00,,,0.00,VWS V14.01,2013-01-26 21:06:00,
2013-01-26 16:11:00,25.6,16.2,30.35,WSW,257,0.0,3.0,67,0.00,,,0.00,VWS V14.01,2013-01-26 21:11:00,
2013-01-26 16:16:00,25.6,16.5,30.35,WSW,257,0.0,3.0,68,0.00,,,0.00,VWS V14.01,2013-01-26 21:16:00,
2013-01-26 16:21:00,25.5,16.4,30.35,WSW,258,0.0,3.0,68,0.00,,,0.00,VWS V14.01,2013-01-26 21:21:00,
2013-01-26 16:26:00,25.5,16.4,30.35,WSW,257,0.0,3.0,68,0.00,,,0.00,VWS V14.01,2013-01-26 21:26:00,
2013-01-26 16:30:00,24.9,16.8,30.38,WSW,258,0.0,2.0,71,0.00,,,0.00,VWS V14.01,2013-01-26 21:30:00,
2013-01-26 16:31:00,25.5,16.4,30.35,WSW,258,0.0,3.0,68,0.00,,,0.00,VWS V14.01,2013-01-26 21:31:00,
2013-01-26 16:36:00,25.4,16.7,30.36,WSW,258,0.0,1.0,69,0.00,,,0.00,VWS V14.01,2013-01-26 21:36:00,
2013-01-26 16:41:00,25.4,16.7,30.36,WSW,258,0.0,2.0,69,0.00,,,0.00,VWS V14.01,2013-01-26 21:41:00,
2013-01-26 16:46:00,25.3,16.6,30.36,WSW,258,0.0,2.0,69,0.00,,,0.00,VWS V14.01,2013-01-26 21:46:00,
2013-01-26 16:51:00,25.3,16.6,30.36,WSW,257,0.0,2.0,69,0.00,,,0.00,VWS V14.01,2013-01-26 21:51:00,
2013-01-26 16:57:00,25.3,16.6,30.37,WSW,258,1.0,2.0,69,0.00,,,0.00,VWS V14.01,2013-01-26 21:57:00,
2013-01-26 17:00:00,24.5,16.5,30.40,WSW,257,0.0,1.0,71,0.00,,,0.00,VWS V14.01,2013-01-26 22:00:00,
2013-01-26 17:02:00,25.3,16.6,30.37,WSW,257,0.0,2.0,69,0.00,,,0.00,VWS V14.01,2013-01-26 22:02:00,
2013-01-26 17:07:00,25.2,16.8,30.37,WSW,258,0.0,0.0,70,0.00,,,0.00,VWS V14.01,2013-01-26 22:07:00,
2013-01-26 17:12:00,25.2,16.8,30.37,WSW,258,0.0,2.0,70,0.00,,,0.00,VWS V14.01,2013-01-26 22:12:00,
2013-01-26 17:17:00,25.1,16.7,30.37,WSW,257,0.0,2.0,70,0.00,,,0.00,VWS V14.01,2013-01-26 22:17:00,
2013-01-26 17:22:00,25.0,16.6,30.38,WSW,257,0.0,2.0,70,0.00,,,0.00,VWS V14.01,2013-01-26 22:22:00,
2013-01-26 17:27:00,25.0,16.6,30.38,WSW,258,0.0,2.0,70,0.00,,,0.00,VWS V14.01,2013-01-26 22:27:00,
2013-01-26 17:30:00,24.1,16.1,30.42,WSW,258,0.0,1.0,71,0.00,,,0.00,VWS V14.01,2013-01-26 22:30:00,
2013-01-26 17:32:00,24.9,16.5,30.38,WSW,258,0.0,2.0,70,0.00,,,0.00,VWS V14.01,2013-01-26 22:32:00,
2013-01-26 17:37:00,24.8,16.4,30.38,WSW,258,0.0,0.0,70,0.00,,,0.00,VWS V14.01,2013-01-26 22:37:00,
2013-01-26 17:42:00,24.8,18.3,30.38,WSW,258,0.0,1.0,76,0.00,,,0.00,VWS V14.01,2013-01-26 22:42:00,
2013-01-26 17:48:00,24.7,16.3,30.38,WSW,257,0.0,1.0,70,0.00,,,0.00,VWS V14.01,2013-01-26 22:48:00,
2013-01-26 17:53:00,24.7,16.6,30.38,WSW,258,0.0,1.0,71,0.00,,,0.00,VWS V14.01,2013-01-26 22:53:00,
2013-01-26 17:58:00,24.6,16.5,30.39,WSW,257,0.0,1.0,71,0.00,,,0.00,VWS V14.01,2013-01-26 22:58:00,
2013-01-26 18:00:00,23.7,15.7,30.42,WSW,257,0.0,0.0,71,0.00,,,0.00,VWS V14.01,2013-01-26 23:00:00,
2013-01-26 18:03:00,24.5,16.5,30.40,WSW,257,0.0,1.0,71,0.00,,,0.00,VWS V14.01,2013-01-26 23:03:00,
2013-01-26 18:08:00,24.4,16.4,30.40,WSW,258,0.0,1.0,71,0.00,,,0.00,VWS V14.01,2013-01-26 23:08:00,
2013-01-26 18:13:00,24.4,16.4,30.40,WSW,258,0.0,1.0,71,0.00,,,0.00,VWS V14.01,2013-01-26 23:13:00,
2013-01-26 18:18:00,24.4,16.4,30.41,WSW,258,0.0,1.0,71,0.00,,,0.00,VWS V14.01,2013-01-26 23:18:00,
2013-01-26 18:23:00,24.3,16.3,30.41,WSW,258,0.0,1.0,71,0.00,,,0.00,VWS V14.01,2013-01-26 23:23:00,
2013-01-26 18:28:00,24.2,16.2,30.41,WSW,258,0.0,1.0,71,0.00,,,0.00,VWS V14.01,2013-01-26 23:28:00,
2013-01-26 18:30:00,22.5,15.2,30.42,WSW,258,0.0,0.0,73,0.00,,,0.00,VWS V14.01,2013-01-26 23:30:00,
2013-01-26 18:33:00,24.2,16.2,30.42,WSW,257,0.0,1.0,71,0.00,,,0.00,VWS V14.01,2013-01-26 23:33:00,
2013-01-26 18:39:00,24.1,16.1,30.42,WSW,257,0.0,0.0,71,0.00,,,0.00,VWS V14.01,2013-01-26 23:39:00,
2013-01-26 18:44:00,24.0,16.0,30.42,WSW,258,0.0,0.0,71,0.00,,,0.00,VWS V14.01,2013-01-26 23:44:00,
2013-01-26 18:49:00,23.9,15.9,30.42,WSW,258,0.0,0.0,71,0.00,,,0.00,VWS V14.01,2013-01-26 23:49:00,
2013-01-26 18:54:00,23.9,15.9,30.42,WSW,258,0.0,0.0,71,0.00,,,0.00,VWS V14.01,2013-01-26 23:54:00,
2013-01-26 18:59:00,23.8,15.8,30.42,WSW,258,0.0,0.0,71,0.00,,,0.00,VWS V14.01,2013-01-26 23:59:00,
2013-01-26 19:00:00,21.6,14.9,30.42,WSW,258,0.0,0.0,75,0.00,,,0.00,VWS V14.01,2013-01-27 00:00:00,
2013-01-26 19:04:00,23.7,15.7,30.42,WSW,258,0.0,0.0,71,0.00,,,0.00,VWS V14.01,2013-01-27 00:04:00,
2013-01-26 19:09:00,23.6,15.6,30.42,WSW,258,0.0,0.0,71,0.00,,,0.00,VWS V14.01,2013-01-27 00:09:00,
2013-01-26 19:14:00,23.5,15.8,30.42,WSW,258,0.0,0.0,72,0.00,,,0.00,VWS V14.01,2013-01-27 00:14:00,
2013-01-26 19:19:00,23.3,15.6,30.42,WSW,258,0.0,0.0,72,0.00,,,0.00,VWS V14.01,2013-01-27 00:19:00,
2013-01-26 19:25:00,23.1,15.4,30.42,WSW,258,0.0,0.0,72,0.00,,,0.00,VWS V14.01,2013-01-27 00:25:00,
2013-01-26 19:30:00,22.8,15.1,30.42,WSW,258,0.0,0.0,72,0.00,,,0.00,VWS V14.01,2013-01-27 00:30:00,
2013-01-26 19:35:00,22.5,14.9,30.42,WSW,258,0.0,0.0,72,0.00,,,0.00,VWS V14.01,2013-01-27 00:35:00,
2013-01-26 19:40:00,22.2,14.9,30.42,WSW,258,0.0,0.0,73,0.00,,,0.00,VWS V14.01,2013-01-27 00:40:00,
2013-01-26 19:45:00,22.0,14.7,30.42,WSW,258,0.0,0.0,73,0.00,,,0.00,VWS V14.01,2013-01-27 00:45:00,
2013-01-26 19:50:00,21.9,14.9,30.42,WSW,258,0.0,0.0,74,0.00,,,0.00,VWS V14.01,2013-01-27 00:50:00,
2013-01-26 19:55:00,21.8,14.8,30.42,WSW,257,0.0,0.0,74,0.00,,,0.00,VWS V14.01,2013-01-27 00:55:00,
2013-01-26 20:00:00,21.7,15.0,30.42,WSW,257,0.0,0.0,75,0.00,,,0.00,VWS V14.01,2013-01-27 01:00:00,
2013-01-26 20:05:00,21.6,14.9,30.42,WSW,257,0.0,0.0,75,0.00,,,0.00,VWS V14.01,2013-01-27 01:05:00,
2013-01-26 20:10:00,21.5,14.8,30.42,WSW,258,0.0,0.0,75,0.00,,,0.00,VWS V14.01,2013-01-27 01:10:00,
2013-01-26 20:16:00,21.3,14.6,30.42,WSW,258,0.0,0.0,75,0.00,,,0.00,VWS V14.01,2013-01-27 01:16:00,
2013-01-26 20:21:00,21.2,14.5,30.42,WSW,258,0.0,0.0,75,0.00,,,0.00,VWS V14.01,2013-01-27 01:21:00,
2013-01-26 20:26:00,21.1,14.7,30.42,WSW,258,0.0,0.0,76,0.00,,,0.00,VWS V14.01,2013-01-27 01:26:00,
2013-01-26 20:30:00,18.7,13.3,30.43,WSW,257,0.0,0.0,79,0.00,,,0.00,VWS V14.01,2013-01-27 01:30:00,
2013-01-26 20:31:00,21.0,14.6,30.42,WSW,257,0.0,0.0,76,0.00,,,0.00,VWS V14.01,2013-01-27 01:31:00,
2013-01-26 20:36:00,20.9,14.5,30.42,WSW,258,0.0,0.0,76,0.00,,,0.00,VWS V14.01,2013-01-27 01:36:00,
2013-01-26 20:41:00,20.8,14.4,30.42,WSW,257,0.0,0.0,76,0.00,,,0.00,VWS V14.01,2013-01-27 01:41:00,
2013-01-26 20:46:00,20.6,14.6,30.42,WSW,258,0.0,0.0,77,0.00,,,0.00,VWS V14.01,2013-01-27 01:46:00,
2013-01-26 20:51:00,20.3,14.3,30.42,WSW,258,0.0,0.0,77,0.00,,,0.00,VWS V14.01,2013-01-27 01:51:00,
2013-01-26 20:56:00,20.0,14.0,30.42,WSW,258,0.0,0.0,77,0.00,,,0.00,VWS V14.01,2013-01-27 01:56:00,
2013-01-26 21:00:00,18.2,13.1,30.43,WSW,258,0.0,0.0,80,0.00,,,0.00,VWS V14.01,2013-01-27 02:00:00,
2013-01-26 21:02:00,19.7,13.7,30.43,WSW,258,0.0,0.0,77,0.00,,,0.00,VWS V14.01,2013-01-27 02:02:00,
2013-01-26 21:07:00,19.5,13.8,30.43,WSW,258,0.0,0.0,78,0.00,,,0.00,VWS V14.01,2013-01-27 02:07:00,
2013-01-26 21:12:00,19.3,13.6,30.43,WSW,258,0.0,0.0,78,0.00,,,0.00,VWS V14.01,2013-01-27 02:12:00,
2013-01-26 21:17:00,19.2,13.5,30.43,WSW,258,0.0,0.0,78,0.00,,,0.00,VWS V14.01,2013-01-27 02:17:00,
2013-01-26 21:22:00,19.1,13.7,30.43,WSW,258,0.0,0.0,79,0.00,,,0.00,VWS V14.01,2013-01-27 02:22:00,
2013-01-26 21:27:00,18.9,13.5,30.43,WSW,257,0.0,0.0,79,0.00,,,0.00,VWS V14.01,2013-01-27 02:27:00,
2013-01-26 21:30:00,17.8,13.0,30.43,WSW,257,0.0,0.0,81,0.00,,,0.00,VWS V14.01,2013-01-27 02:30:00,
2013-01-26 21:32:00,18.8,13.4,30.43,WSW,257,0.0,0.0,79,0.00,,,0.00,VWS V14.01,2013-01-27 02:32:00,
2013-01-26 21:37:00,18.6,13.2,30.43,WSW,258,0.0,0.0,79,0.00,,,0.00,VWS V14.01,2013-01-27 02:37:00,
2013-01-26 21:42:00,18.5,13.4,30.44,WSW,257,0.0,0.0,80,0.00,,,0.00,VWS V14.01,2013-01-27 02:42:00,
2013-01-26 21:48:00,18.4,13.3,30.44,WSW,258,0.0,0.0,80,0.00,,,0.00,VWS V14.01,2013-01-27 02:48:00,
2013-01-26 21:53:00,18.3,13.2,30.43,WSW,258,0.0,0.0,80,0.00,,,0.00,VWS V14.01,2013-01-27 02:53:00,
2013-01-26 21:58:00,18.3,13.2,30.43,WSW,258,0.0,0.0,80,0.00,,,0.00,VWS V14.01,2013-01-27 02:58:00,
2013-01-26 22:00:00,17.5,12.7,30.44,WSW,258,0.0,0.0,81,0.00,,,0.00,VWS V14.01,2013-01-27 03:00:00,
2013-01-26 22:03:00,18.3,13.2,30.43,WSW,258,0.0,0.0,80,0.00,,,0.00,VWS V14.01,2013-01-27 03:03:00,
2013-01-26 22:08:00,18.2,13.1,30.43,WSW,258,0.0,0.0,80,0.00,,,0.00,VWS V14.01,2013-01-27 03:08:00,
2013-01-26 22:13:00,18.1,13.3,30.43,WSW,257,0.0,0.0,81,0.00,,,0.00,VWS V14.01,2013-01-27 03:13:00,
2013-01-26 22:18:00,18.0,13.2,30.43,WSW,257,0.0,0.0,81,0.00,,,0.00,VWS V14.01,2013-01-27 03:18:00,
2013-01-26 22:23:00,17.9,13.1,30.43,WSW,257,0.0,0.0,81,0.00,,,0.00,VWS V14.01,2013-01-27 03:23:00,
2013-01-26 22:28:00,17.8,13.0,30.43,WSW,257,0.0,0.0,81,0.00,,,0.00,VWS V14.01,2013-01-27 03:28:00,
2013-01-26 22:30:00,17.1,12.6,30.47,WSW,258,0.0,0.0,82,0.00,,,0.00,VWS V14.01,2013-01-27 03:30:00,
2013-01-26 22:33:00,17.8,13.0,30.43,WSW,257,0.0,0.0,81,0.00,,,0.00,VWS V14.01,2013-01-27 03:33:00,
2013-01-26 22:39:00,17.7,12.9,30.43,WSW,258,0.0,0.0,81,0.00,,,0.00,VWS V14.01,2013-01-27 03:39:00,
2013-01-26 22:44:00,17.7,12.9,30.43,WSW,258,0.0,0.0,81,0.00,,,0.00,VWS V14.01,2013-01-27 03:44:00,
2013-01-26 22:49:00,17.6,12.8,30.43,WSW,258,0.0,0.0,81,0.00,,,0.00,VWS V14.01,2013-01-27 03:49:00,
2013-01-26 22:54:00,17.6,12.8,30.44,WSW,258,0.0,0.0,81,0.00,,,0.00,VWS V14.01,2013-01-27 03:54:00,
2013-01-26 22:59:00,17.5,12.7,30.43,WSW,257,0.0,0.0,81,0.00,,,0.00,VWS V14.01,2013-01-27 03:59:00,
2013-01-26 23:00:00,16.7,12.2,30.47,WSW,258,0.0,0.0,82,0.00,,,0.00,VWS V14.01,2013-01-27 04:00:00,
2013-01-26 23:04:00,17.5,12.7,30.44,WSW,257,0.0,0.0,81,0.00,,,0.00,VWS V14.01,2013-01-27 04:04:00,
2013-01-26 23:09:00,17.4,12.6,30.44,WSW,258,0.0,0.0,81,0.00,,,0.00,VWS V14.01,2013-01-27 04:09:00,
2013-01-26 23:14:00,17.3,12.5,30.44,WSW,258,0.0,0.0,81,0.00,,,0.00,VWS V14.01,2013-01-27 04:14:00,
2013-01-26 23:19:00,17.3,12.5,30.45,WSW,257,0.0,0.0,81,0.00,,,0.00,VWS V14.01,2013-01-27 04:19:00,
2013-01-26 23:24:00,17.2,12.7,30.45,WSW,258,0.0,0.0,82,0.00,,,0.00,VWS V14.01,2013-01-27 04:24:00,
2013-01-26 23:30:00,17.2,12.7,30.46,WSW,258,0.0,0.0,82,0.00,,,0.00,VWS V14.01,2013-01-27 04:30:00,
2013-01-26 23:35:00,17.1,12.6,30.47,WSW,258,0.0,0.0,82,0.00,,,0.00,VWS V14.01,2013-01-27 04:35:00,
2013-01-26 23:40:00,17.1,12.6,30.46,WSW,257,0.0,0.0,82,0.00,,,0.00,VWS V14.01,2013-01-27 04:40:00,
2013-01-26 23:45:00,17.0,12.5,30.46,WSW,258,0.0,0.0,82,0.00,,,0.00,VWS V14.01,2013-01-27 04:45:00,
2013-01-26 23:50:00,17.0,12.5,30.47,WSW,258,0.0,0.0,82,0.00,,,0.00,VWS V14.01,2013-01-27 04:50:00,
2013-01-26 23:55:00,16.9,12.4,30.47,WSW,258,0.0,0.0,82,0.00,,,0.00,VWS V14.01,2013-01-27 04:55:00,